sensor_id;sensor_type;location;lat;lon;timestamp;P1;durP1;ratioP1;P2;durP2;ratioP2
3217;SDS011;1621;49.702;8.618;2022-08-18T00:02:04;7.97;;;6.23;;
3217;SDS011;1621;49.702;8.618;2022-08-18T00:04:31;11.33;;;6.90;;
3217;SDS011;1621;49.702;8.618;2022-08-18T00:06:59;12.43;;;7.00;;
3217;SDS011;1621;49.702;8.618;2022-08-18T00:09:26;8.63;;;6.50;;
3217;SDS011;1621;49.702;8.618;2022-08-18T00:11:53;8.43;;;6.77;;
3217;SDS011;1621;49.702;8.618;2022-08-18T00:14:20;12.73;;;7.17;;
3217;SDS011;1621;49.702;8.618;2022-08-18T00:16:46;7.53;;;6.73;;
3217;SDS011;1621;49.702;8.618;2022-08-18T00:19:13;9.93;;;6.93;;
3217;SDS011;1621;49.702;8.618;2022-08-18T00:21:39;8.53;;;6.97;;
3217;SDS011;1621;49.702;8.618;2022-08-18T00:24:05;8.90;;;7.07;;
3217;SDS011;1621;49.702;8.618;2022-08-18T00:26:31;7.73;;;6.30;;
3217;SDS011;1621;49.702;8.618;2022-08-18T00:28:59;11.33;;;7.20;;
3217;SDS011;1621;49.702;8.618;2022-08-18T00:31:25;7.67;;;6.90;;
3217;SDS011;1621;49.702;8.618;2022-08-18T00:33:52;7.37;;;6.47;;
3217;SDS011;1621;49.702;8.618;2022-08-18T00:36:18;9.23;;;6.80;;
3217;SDS011;1621;49.702;8.618;2022-08-18T00:38:44;8.23;;;6.37;;
3217;SDS011;1621;49.702;8.618;2022-08-18T00:41:10;8.73;;;6.40;;
3217;SDS011;1621;49.702;8.618;2022-08-18T00:43:38;8.90;;;6.43;;
3217;SDS011;1621;49.702;8.618;2022-08-18T00:46:07;12.00;;;6.43;;
3217;SDS011;1621;49.702;8.618;2022-08-18T00:48:34;7.00;;;6.23;;
3217;SDS011;1621;49.702;8.618;2022-08-18T00:51:01;7.27;;;6.50;;
3217;SDS011;1621;49.702;8.618;2022-08-18T00:53:29;8.40;;;5.67;;
3217;SDS011;1621;49.702;8.618;2022-08-18T00:55:58;8.73;;;6.03;;
3217;SDS011;1621;49.702;8.618;2022-08-18T00:58:26;10.00;;;6.20;;
3217;SDS011;1621;49.702;8.618;2022-08-18T01:00:53;7.40;;;6.00;;
3217;SDS011;1621;49.702;8.618;2022-08-18T01:03:21;8.77;;;6.30;;
3217;SDS011;1621;49.702;8.618;2022-08-18T01:05:49;7.50;;;6.70;;
3217;SDS011;1621;49.702;8.618;2022-08-18T01:08:18;7.83;;;6.10;;
3217;SDS011;1621;49.702;8.618;2022-08-18T01:10:44;6.53;;;5.60;;
3217;SDS011;1621;49.702;8.618;2022-08-18T01:13:10;8.33;;;5.43;;
3217;SDS011;1621;49.702;8.618;2022-08-18T01:15:37;7.57;;;6.43;;
3217;SDS011;1621;49.702;8.618;2022-08-18T01:18:04;6.23;;;5.63;;
3217;SDS011;1621;49.702;8.618;2022-08-18T01:20:51;12.07;;;6.20;;
3217;SDS011;1621;49.702;8.618;2022-08-18T01:23:41;7.37;;;6.03;;
3217;SDS011;1621;49.702;8.618;2022-08-18T01:26:08;9.60;;;6.00;;
3217;SDS011;1621;49.702;8.618;2022-08-18T01:28:35;9.03;;;5.87;;
3217;SDS011;1621;49.702;8.618;2022-08-18T01:31:02;6.87;;;5.80;;
3217;SDS011;1621;49.702;8.618;2022-08-18T01:33:29;7.17;;;5.97;;
3217;SDS011;1621;49.702;8.618;2022-08-18T01:35:57;7.17;;;5.20;;
3217;SDS011;1621;49.702;8.618;2022-08-18T01:38:23;6.93;;;5.63;;
3217;SDS011;1621;49.702;8.618;2022-08-18T01:40:51;7.17;;;5.70;;
3217;SDS011;1621;49.702;8.618;2022-08-18T01:43:18;7.47;;;5.13;;
3217;SDS011;1621;49.702;8.618;2022-08-18T01:45:45;6.67;;;5.50;;
3217;SDS011;1621;49.702;8.618;2022-08-18T01:48:11;6.40;;;4.93;;
3217;SDS011;1621;49.702;8.618;2022-08-18T01:50:38;5.90;;;4.63;;
3217;SDS011;1621;49.702;8.618;2022-08-18T01:53:06;6.30;;;5.30;;
3217;SDS011;1621;49.702;8.618;2022-08-18T01:55:33;5.90;;;5.17;;
3217;SDS011;1621;49.702;8.618;2022-08-18T01:58:00;6.20;;;5.40;;
3217;SDS011;1621;49.702;8.618;2022-08-18T02:00:27;5.60;;;4.77;;
3217;SDS011;1621;49.702;8.618;2022-08-18T02:02:53;5.77;;;5.17;;
3217;SDS011;1621;49.702;8.618;2022-08-18T02:05:22;7.67;;;5.10;;
3217;SDS011;1621;49.702;8.618;2022-08-18T02:07:49;7.83;;;5.17;;
3217;SDS011;1621;49.702;8.618;2022-08-18T02:10:15;7.00;;;5.20;;
3217;SDS011;1621;49.702;8.618;2022-08-18T02:12:43;6.57;;;5.30;;
3217;SDS011;1621;49.702;8.618;2022-08-18T02:15:11;7.20;;;4.87;;
3217;SDS011;1621;49.702;8.618;2022-08-18T02:17:38;6.07;;;5.00;;
3217;SDS011;1621;49.702;8.618;2022-08-18T02:20:05;7.80;;;5.17;;
3217;SDS011;1621;49.702;8.618;2022-08-18T02:22:32;6.60;;;4.67;;
3217;SDS011;1621;49.702;8.618;2022-08-18T02:24:59;5.30;;;4.70;;
3217;SDS011;1621;49.702;8.618;2022-08-18T02:27:25;5.87;;;4.80;;
3217;SDS011;1621;49.702;8.618;2022-08-18T02:29:52;6.93;;;4.67;;
3217;SDS011;1621;49.702;8.618;2022-08-18T02:32:20;6.50;;;4.60;;
3217;SDS011;1621;49.702;8.618;2022-08-18T02:34:46;7.60;;;5.27;;
3217;SDS011;1621;49.702;8.618;2022-08-18T02:37:12;7.50;;;5.07;;
3217;SDS011;1621;49.702;8.618;2022-08-18T02:39:38;6.40;;;5.07;;
3217;SDS011;1621;49.702;8.618;2022-08-18T02:42:05;6.03;;;5.07;;
3217;SDS011;1621;49.702;8.618;2022-08-18T02:44:33;6.47;;;4.97;;
3217;SDS011;1621;49.702;8.618;2022-08-18T02:47:00;8.73;;;5.70;;
3217;SDS011;1621;49.702;8.618;2022-08-18T02:49:28;6.03;;;4.90;;
3217;SDS011;1621;49.702;8.618;2022-08-18T02:51:54;7.90;;;4.80;;
3217;SDS011;1621;49.702;8.618;2022-08-18T02:54:21;5.80;;;5.20;;
3217;SDS011;1621;49.702;8.618;2022-08-18T02:56:48;9.40;;;5.50;;
3217;SDS011;1621;49.702;8.618;2022-08-18T02:59:15;6.20;;;5.30;;
3217;SDS011;1621;49.702;8.618;2022-08-18T03:01:43;6.40;;;4.97;;
3217;SDS011;1621;49.702;8.618;2022-08-18T03:04:10;6.10;;;5.00;;
3217;SDS011;1621;49.702;8.618;2022-08-18T03:06:38;5.87;;;4.70;;
3217;SDS011;1621;49.702;8.618;2022-08-18T03:09:05;6.10;;;4.83;;
3217;SDS011;1621;49.702;8.618;2022-08-18T03:11:32;5.63;;;5.03;;
3217;SDS011;1621;49.702;8.618;2022-08-18T03:13:58;7.07;;;5.90;;
3217;SDS011;1621;49.702;8.618;2022-08-18T03:16:25;6.10;;;5.00;;
3217;SDS011;1621;49.702;8.618;2022-08-18T03:18:55;7.30;;;5.23;;
3217;SDS011;1621;49.702;8.618;2022-08-18T03:21:23;6.60;;;4.80;;
3217;SDS011;1621;49.702;8.618;2022-08-18T03:23:52;6.20;;;5.30;;
3217;SDS011;1621;49.702;8.618;2022-08-18T03:26:19;5.93;;;5.00;;
3217;SDS011;1621;49.702;8.618;2022-08-18T03:28:46;6.57;;;5.20;;
3217;SDS011;1621;49.702;8.618;2022-08-18T03:31:13;6.03;;;5.00;;
3217;SDS011;1621;49.702;8.618;2022-08-18T03:33:40;6.00;;;5.23;;
3217;SDS011;1621;49.702;8.618;2022-08-18T03:36:07;8.30;;;4.87;;
3217;SDS011;1621;49.702;8.618;2022-08-18T03:38:36;6.40;;;4.63;;
3217;SDS011;1621;49.702;8.618;2022-08-18T03:41:03;8.43;;;5.17;;
3217;SDS011;1621;49.702;8.618;2022-08-18T03:43:30;5.50;;;4.60;;
3217;SDS011;1621;49.702;8.618;2022-08-18T03:45:59;7.20;;;5.50;;
3217;SDS011;1621;49.702;8.618;2022-08-18T03:48:25;7.93;;;6.17;;
3217;SDS011;1621;49.702;8.618;2022-08-18T03:50:51;6.47;;;5.03;;
3217;SDS011;1621;49.702;8.618;2022-08-18T03:53:17;7.97;;;5.10;;
3217;SDS011;1621;49.702;8.618;2022-08-18T03:55:44;10.30;;;5.67;;
3217;SDS011;1621;49.702;8.618;2022-08-18T03:58:11;5.27;;;4.77;;
3217;SDS011;1621;49.702;8.618;2022-08-18T04:00:39;6.20;;;4.90;;
3217;SDS011;1621;49.702;8.618;2022-08-18T04:03:05;6.93;;;5.33;;
3217;SDS011;1621;49.702;8.618;2022-08-18T04:05:32;6.13;;;5.53;;
3217;SDS011;1621;49.702;8.618;2022-08-18T04:07:59;8.77;;;5.07;;
3217;SDS011;1621;49.702;8.618;2022-08-18T04:10:25;6.10;;;5.50;;
3217;SDS011;1621;49.702;8.618;2022-08-18T04:12:52;6.83;;;5.50;;
3217;SDS011;1621;49.702;8.618;2022-08-18T04:15:19;5.97;;;5.43;;
3217;SDS011;1621;49.702;8.618;2022-08-18T04:17:45;6.67;;;5.33;;
3217;SDS011;1621;49.702;8.618;2022-08-18T04:20:12;8.00;;;5.67;;
3217;SDS011;1621;49.702;8.618;2022-08-18T04:22:38;6.30;;;5.30;;
3217;SDS011;1621;49.702;8.618;2022-08-18T04:25:05;7.60;;;5.57;;
3217;SDS011;1621;49.702;8.618;2022-08-18T04:27:33;10.27;;;5.80;;
3217;SDS011;1621;49.702;8.618;2022-08-18T04:30:00;6.37;;;5.10;;
3217;SDS011;1621;49.702;8.618;2022-08-18T04:32:28;6.60;;;4.70;;
3217;SDS011;1621;49.702;8.618;2022-08-18T04:34:55;5.93;;;4.80;;
3217;SDS011;1621;49.702;8.618;2022-08-18T04:37:21;6.00;;;5.00;;
3217;SDS011;1621;49.702;8.618;2022-08-18T04:39:47;9.67;;;6.00;;
3217;SDS011;1621;49.702;8.618;2022-08-18T04:42:13;6.40;;;5.00;;
3217;SDS011;1621;49.702;8.618;2022-08-18T04:44:40;6.43;;;4.97;;
3217;SDS011;1621;49.702;8.618;2022-08-18T04:47:06;7.67;;;5.60;;
3217;SDS011;1621;49.702;8.618;2022-08-18T04:49:34;5.90;;;4.93;;
3217;SDS011;1621;49.702;8.618;2022-08-18T04:52:02;7.53;;;6.33;;
3217;SDS011;1621;49.702;8.618;2022-08-18T04:54:46;7.23;;;5.27;;
3217;SDS011;1621;49.702;8.618;2022-08-18T04:57:13;5.83;;;5.20;;
3217;SDS011;1621;49.702;8.618;2022-08-18T04:59:41;8.53;;;4.73;;
3217;SDS011;1621;49.702;8.618;2022-08-18T05:02:08;7.03;;;5.50;;
3217;SDS011;1621;49.702;8.618;2022-08-18T05:04:36;5.67;;;4.97;;
3217;SDS011;1621;49.702;8.618;2022-08-18T05:07:03;6.53;;;5.50;;
3217;SDS011;1621;49.702;8.618;2022-08-18T05:09:29;6.23;;;5.63;;
3217;SDS011;1621;49.702;8.618;2022-08-18T05:11:56;6.60;;;5.63;;
3217;SDS011;1621;49.702;8.618;2022-08-18T05:14:22;5.53;;;4.83;;
3217;SDS011;1621;49.702;8.618;2022-08-18T05:16:49;5.60;;;5.10;;
3217;SDS011;1621;49.702;8.618;2022-08-18T05:19:16;10.80;;;6.17;;
3217;SDS011;1621;49.702;8.618;2022-08-18T05:21:45;5.90;;;5.30;;
3217;SDS011;1621;49.702;8.618;2022-08-18T05:24:11;7.20;;;6.40;;
3217;SDS011;1621;49.702;8.618;2022-08-18T05:26:37;6.93;;;5.60;;
3217;SDS011;1621;49.702;8.618;2022-08-18T05:29:05;7.20;;;5.80;;
3217;SDS011;1621;49.702;8.618;2022-08-18T05:31:32;10.90;;;5.97;;
3217;SDS011;1621;49.702;8.618;2022-08-18T05:33:58;8.40;;;6.97;;
3217;SDS011;1621;49.702;8.618;2022-08-18T05:36:33;9.27;;;6.03;;
3217;SDS011;1621;49.702;8.618;2022-08-18T05:39:08;7.90;;;6.13;;
3217;SDS011;1621;49.702;8.618;2022-08-18T05:41:37;7.23;;;5.10;;
3217;SDS011;1621;49.702;8.618;2022-08-18T05:44:05;6.43;;;5.83;;
3217;SDS011;1621;49.702;8.618;2022-08-18T05:46:33;6.77;;;5.97;;
3217;SDS011;1621;49.702;8.618;2022-08-18T05:49:02;7.67;;;6.20;;
3217;SDS011;1621;49.702;8.618;2022-08-18T05:51:30;10.53;;;6.20;;
3217;SDS011;1621;49.702;8.618;2022-08-18T05:54:00;6.70;;;5.77;;
3217;SDS011;1621;49.702;8.618;2022-08-18T05:56:45;8.03;;;5.73;;
3217;SDS011;1621;49.702;8.618;2022-08-18T05:59:13;7.83;;;6.00;;
3217;SDS011;1621;49.702;8.618;2022-08-18T06:01:42;7.40;;;6.17;;
3217;SDS011;1621;49.702;8.618;2022-08-18T06:04:12;7.90;;;6.60;;
3217;SDS011;1621;49.702;8.618;2022-08-18T06:06:41;12.60;;;5.70;;
3217;SDS011;1621;49.702;8.618;2022-08-18T06:09:09;7.70;;;6.40;;
3217;SDS011;1621;49.702;8.618;2022-08-18T06:11:37;7.50;;;6.67;;
3217;SDS011;1621;49.702;8.618;2022-08-18T06:14:04;6.87;;;6.07;;
3217;SDS011;1621;49.702;8.618;2022-08-18T06:16:34;6.33;;;5.73;;
3217;SDS011;1621;49.702;8.618;2022-08-18T06:19:05;7.27;;;6.53;;
3217;SDS011;1621;49.702;8.618;2022-08-18T06:21:40;7.93;;;5.90;;
3217;SDS011;1621;49.702;8.618;2022-08-18T06:24:14;7.50;;;6.60;;
3217;SDS011;1621;49.702;8.618;2022-08-18T06:26:43;9.20;;;6.93;;
3217;SDS011;1621;49.702;8.618;2022-08-18T06:29:19;7.17;;;6.17;;
3217;SDS011;1621;49.702;8.618;2022-08-18T06:31:50;7.20;;;5.70;;
3217;SDS011;1621;49.702;8.618;2022-08-18T06:34:21;6.30;;;5.70;;
3217;SDS011;1621;49.702;8.618;2022-08-18T06:36:51;7.03;;;6.10;;
3217;SDS011;1621;49.702;8.618;2022-08-18T06:39:21;7.00;;;6.30;;
3217;SDS011;1621;49.702;8.618;2022-08-18T06:41:50;9.23;;;5.90;;
3217;SDS011;1621;49.702;8.618;2022-08-18T06:44:20;7.80;;;7.00;;
3217;SDS011;1621;49.702;8.618;2022-08-18T06:46:48;6.83;;;6.13;;
3217;SDS011;1621;49.702;8.618;2022-08-18T06:49:17;8.03;;;6.47;;
3217;SDS011;1621;49.702;8.618;2022-08-18T06:51:45;7.67;;;6.73;;
3217;SDS011;1621;49.702;8.618;2022-08-18T06:54:24;6.60;;;5.90;;
3217;SDS011;1621;49.702;8.618;2022-08-18T06:56:52;7.47;;;6.50;;
3217;SDS011;1621;49.702;8.618;2022-08-18T06:59:21;12.53;;;6.57;;
3217;SDS011;1621;49.702;8.618;2022-08-18T07:01:49;10.00;;;6.37;;
3217;SDS011;1621;49.702;8.618;2022-08-18T07:04:30;7.93;;;5.87;;
3217;SDS011;1621;49.702;8.618;2022-08-18T07:06:56;10.37;;;6.90;;
3217;SDS011;1621;49.702;8.618;2022-08-18T07:09:24;7.63;;;6.53;;
3217;SDS011;1621;49.702;8.618;2022-08-18T07:11:58;7.93;;;6.73;;
3217;SDS011;1621;49.702;8.618;2022-08-18T07:14:26;6.67;;;5.90;;
3217;SDS011;1621;49.702;8.618;2022-08-18T07:17:04;8.30;;;6.80;;
3217;SDS011;1621;49.702;8.618;2022-08-18T07:19:32;8.17;;;6.73;;
3217;SDS011;1621;49.702;8.618;2022-08-18T07:22:03;8.30;;;6.40;;
3217;SDS011;1621;49.702;8.618;2022-08-18T07:24:31;7.20;;;6.00;;
3217;SDS011;1621;49.702;8.618;2022-08-18T07:26:59;9.30;;;6.70;;
3217;SDS011;1621;49.702;8.618;2022-08-18T07:29:27;9.27;;;6.97;;
3217;SDS011;1621;49.702;8.618;2022-08-18T07:31:53;9.77;;;6.87;;
3217;SDS011;1621;49.702;8.618;2022-08-18T07:34:21;7.50;;;6.27;;
3217;SDS011;1621;49.702;8.618;2022-08-18T07:36:51;8.00;;;7.20;;
3217;SDS011;1621;49.702;8.618;2022-08-18T07:39:20;10.23;;;7.47;;
3217;SDS011;1621;49.702;8.618;2022-08-18T07:41:48;12.60;;;8.37;;
3217;SDS011;1621;49.702;8.618;2022-08-18T07:44:16;8.63;;;7.30;;
3217;SDS011;1621;49.702;8.618;2022-08-18T07:46:47;9.50;;;7.33;;
3217;SDS011;1621;49.702;8.618;2022-08-18T07:49:17;9.40;;;7.20;;
3217;SDS011;1621;49.702;8.618;2022-08-18T07:51:45;8.27;;;6.97;;
3217;SDS011;1621;49.702;8.618;2022-08-18T07:54:15;7.93;;;7.13;;
3217;SDS011;1621;49.702;8.618;2022-08-18T07:56:45;8.73;;;7.83;;
3217;SDS011;1621;49.702;8.618;2022-08-18T07:59:14;8.93;;;6.80;;
3217;SDS011;1621;49.702;8.618;2022-08-18T08:01:43;8.60;;;7.17;;
3217;SDS011;1621;49.702;8.618;2022-08-18T08:04:15;10.10;;;7.37;;
3217;SDS011;1621;49.702;8.618;2022-08-18T08:06:47;10.10;;;7.53;;
3217;SDS011;1621;49.702;8.618;2022-08-18T08:09:16;8.87;;;7.10;;
3217;SDS011;1621;49.702;8.618;2022-08-18T08:11:46;9.33;;;6.37;;
3217;SDS011;1621;49.702;8.618;2022-08-18T08:14:17;9.57;;;7.37;;
3217;SDS011;1621;49.702;8.618;2022-08-18T08:16:47;12.60;;;8.10;;
3217;SDS011;1621;49.702;8.618;2022-08-18T08:19:23;11.23;;;8.33;;
3217;SDS011;1621;49.702;8.618;2022-08-18T08:21:55;10.67;;;7.60;;
3217;SDS011;1621;49.702;8.618;2022-08-18T08:24:26;10.83;;;7.47;;
3217;SDS011;1621;49.702;8.618;2022-08-18T08:26:56;13.43;;;8.37;;
3217;SDS011;1621;49.702;8.618;2022-08-18T08:29:28;9.63;;;7.80;;
3217;SDS011;1621;49.702;8.618;2022-08-18T08:32:00;21.37;;;8.20;;
3217;SDS011;1621;49.702;8.618;2022-08-18T08:34:29;8.43;;;7.50;;
3217;SDS011;1621;49.702;8.618;2022-08-18T08:36:57;9.63;;;8.50;;
3217;SDS011;1621;49.702;8.618;2022-08-18T08:39:24;11.73;;;8.80;;
3217;SDS011;1621;49.702;8.618;2022-08-18T08:41:53;10.50;;;8.83;;
3217;SDS011;1621;49.702;8.618;2022-08-18T08:44:22;13.87;;;9.43;;
3217;SDS011;1621;49.702;8.618;2022-08-18T08:46:50;10.47;;;8.97;;
3217;SDS011;1621;49.702;8.618;2022-08-18T08:49:27;11.27;;;9.43;;
3217;SDS011;1621;49.702;8.618;2022-08-18T08:51:57;11.33;;;9.77;;
3217;SDS011;1621;49.702;8.618;2022-08-18T08:54:25;10.33;;;9.23;;
3217;SDS011;1621;49.702;8.618;2022-08-18T08:56:54;12.57;;;9.37;;
3217;SDS011;1621;49.702;8.618;2022-08-18T08:59:23;11.67;;;10.47;;
3217;SDS011;1621;49.702;8.618;2022-08-18T09:01:51;14.80;;;10.33;;
3217;SDS011;1621;49.702;8.618;2022-08-18T09:04:23;15.60;;;9.40;;
3217;SDS011;1621;49.702;8.618;2022-08-18T09:07:00;13.33;;;10.13;;
3217;SDS011;1621;49.702;8.618;2022-08-18T09:09:45;12.43;;;10.23;;
3217;SDS011;1621;49.702;8.618;2022-08-18T09:12:17;11.10;;;9.80;;
3217;SDS011;1621;49.702;8.618;2022-08-18T09:17:48;11.13;;;9.43;;
3217;SDS011;1621;49.702;8.618;2022-08-18T09:20:25;13.10;;;10.47;;
3217;SDS011;1621;49.702;8.618;2022-08-18T09:22:58;15.00;;;9.90;;
3217;SDS011;1621;49.702;8.618;2022-08-18T09:25:31;16.40;;;11.07;;
3217;SDS011;1621;49.702;8.618;2022-08-18T09:28:07;13.33;;;11.03;;
3217;SDS011;1621;49.702;8.618;2022-08-18T09:30:37;12.80;;;10.73;;
3217;SDS011;1621;49.702;8.618;2022-08-18T09:33:11;16.00;;;11.90;;
3217;SDS011;1621;49.702;8.618;2022-08-18T09:35:52;14.37;;;10.90;;
3217;SDS011;1621;49.702;8.618;2022-08-18T09:38:21;13.57;;;11.67;;
3217;SDS011;1621;49.702;8.618;2022-08-18T09:41:07;13.87;;;11.73;;
3217;SDS011;1621;49.702;8.618;2022-08-18T09:43:54;13.70;;;11.60;;
3217;SDS011;1621;49.702;8.618;2022-08-18T09:49:38;15.63;;;12.87;;
3217;SDS011;1621;49.702;8.618;2022-08-18T09:54:50;14.10;;;12.00;;
3217;SDS011;1621;49.702;8.618;2022-08-18T09:57:18;16.10;;;13.67;;
3217;SDS011;1621;49.702;8.618;2022-08-18T09:59:56;14.37;;;12.37;;
3217;SDS011;1621;49.702;8.618;2022-08-18T10:05:21;14.20;;;11.70;;
3217;SDS011;1621;49.702;8.618;2022-08-18T10:07:50;12.83;;;11.43;;
3217;SDS011;1621;49.702;8.618;2022-08-18T10:10:21;14.70;;;12.37;;
3217;SDS011;1621;49.702;8.618;2022-08-18T10:12:51;15.10;;;13.10;;
3217;SDS011;1621;49.702;8.618;2022-08-18T10:15:29;13.60;;;12.20;;
3217;SDS011;1621;49.702;8.618;2022-08-18T10:20:48;15.90;;;13.37;;
3217;SDS011;1621;49.702;8.618;2022-08-18T10:26:06;15.60;;;12.60;;
3217;SDS011;1621;49.702;8.618;2022-08-18T10:28:53;18.87;;;14.37;;
3217;SDS011;1621;49.702;8.618;2022-08-18T10:31:20;15.97;;;13.40;;
3217;SDS011;1621;49.702;8.618;2022-08-18T10:33:54;15.97;;;14.20;;
3217;SDS011;1621;49.702;8.618;2022-08-18T10:39:05;16.87;;;13.77;;
3217;SDS011;1621;49.702;8.618;2022-08-18T10:41:36;16.60;;;14.00;;
3217;SDS011;1621;49.702;8.618;2022-08-18T10:44:03;16.57;;;14.77;;
3217;SDS011;1621;49.702;8.618;2022-08-18T10:46:30;15.90;;;14.20;;
3217;SDS011;1621;49.702;8.618;2022-08-18T10:48:58;18.00;;;15.00;;
3217;SDS011;1621;49.702;8.618;2022-08-18T10:51:27;16.37;;;14.67;;
3217;SDS011;1621;49.702;8.618;2022-08-18T10:53:57;16.30;;;14.43;;
3217;SDS011;1621;49.702;8.618;2022-08-18T10:56:27;17.40;;;15.70;;
3217;SDS011;1621;49.702;8.618;2022-08-18T10:59:09;22.00;;;16.67;;
3217;SDS011;1621;49.702;8.618;2022-08-18T11:01:47;18.60;;;16.60;;
3217;SDS011;1621;49.702;8.618;2022-08-18T11:04:23;18.07;;;16.27;;
3217;SDS011;1621;49.702;8.618;2022-08-18T11:06:52;19.30;;;17.30;;
3217;SDS011;1621;49.702;8.618;2022-08-18T11:09:22;19.83;;;17.83;;
3217;SDS011;1621;49.702;8.618;2022-08-18T11:11:50;18.63;;;16.73;;
3217;SDS011;1621;49.702;8.618;2022-08-18T11:14:27;19.00;;;16.83;;
3217;SDS011;1621;49.702;8.618;2022-08-18T11:17:01;20.13;;;17.30;;
3217;SDS011;1621;49.702;8.618;2022-08-18T11:19:34;19.97;;;17.83;;
3217;SDS011;1621;49.702;8.618;2022-08-18T11:22:01;21.13;;;18.87;;
3217;SDS011;1621;49.702;8.618;2022-08-18T11:24:28;21.67;;;18.13;;
3217;SDS011;1621;49.702;8.618;2022-08-18T11:26:56;19.10;;;17.10;;
3217;SDS011;1621;49.702;8.618;2022-08-18T11:29:34;21.23;;;18.70;;
3217;SDS011;1621;49.702;8.618;2022-08-18T11:32:02;22.37;;;20.10;;
3217;SDS011;1621;49.702;8.618;2022-08-18T11:34:30;25.57;;;21.27;;
3217;SDS011;1621;49.702;8.618;2022-08-18T11:36:57;22.47;;;20.10;;
3217;SDS011;1621;49.702;8.618;2022-08-18T11:39:24;25.67;;;22.87;;
3217;SDS011;1621;49.702;8.618;2022-08-18T11:41:51;25.20;;;22.53;;
3217;SDS011;1621;49.702;8.618;2022-08-18T11:44:17;25.43;;;21.47;;
3217;SDS011;1621;49.702;8.618;2022-08-18T11:46:46;29.70;;;23.57;;
3217;SDS011;1621;49.702;8.618;2022-08-18T11:49:14;27.27;;;24.43;;
3217;SDS011;1621;49.702;8.618;2022-08-18T11:51:52;26.00;;;23.40;;
3217;SDS011;1621;49.702;8.618;2022-08-18T11:54:19;26.70;;;23.90;;
3217;SDS011;1621;49.702;8.618;2022-08-18T11:56:46;25.60;;;22.90;;
3217;SDS011;1621;49.702;8.618;2022-08-18T12:01:57;29.23;;;26.13;;
3217;SDS011;1621;49.702;8.618;2022-08-18T12:04:26;28.60;;;25.07;;
3217;SDS011;1621;49.702;8.618;2022-08-18T12:06:55;31.03;;;26.00;;
3217;SDS011;1621;49.702;8.618;2022-08-18T12:09:26;30.60;;;27.30;;
3217;SDS011;1621;49.702;8.618;2022-08-18T12:11:54;29.20;;;26.17;;
3217;SDS011;1621;49.702;8.618;2022-08-18T12:14:22;34.00;;;30.40;;
3217;SDS011;1621;49.702;8.618;2022-08-18T12:16:49;33.93;;;30.33;;
3217;SDS011;1621;49.702;8.618;2022-08-18T12:19:17;35.00;;;29.67;;
3217;SDS011;1621;49.702;8.618;2022-08-18T12:21:44;32.90;;;29.40;;
3217;SDS011;1621;49.702;8.618;2022-08-18T12:24:12;39.83;;;34.20;;
3217;SDS011;1621;49.702;8.618;2022-08-18T12:26:41;35.13;;;31.33;;
3217;SDS011;1621;49.702;8.618;2022-08-18T12:29:08;45.20;;;34.23;;
3217;SDS011;1621;49.702;8.618;2022-08-18T12:31:34;39.07;;;35.00;;
3217;SDS011;1621;49.702;8.618;2022-08-18T12:34:00;35.60;;;31.80;;
3217;SDS011;1621;49.702;8.618;2022-08-18T12:36:29;37.43;;;33.37;;
3217;SDS011;1621;49.702;8.618;2022-08-18T12:38:56;39.23;;;35.00;;
3217;SDS011;1621;49.702;8.618;2022-08-18T12:41:22;38.10;;;33.33;;
3217;SDS011;1621;49.702;8.618;2022-08-18T12:43:49;37.30;;;32.23;;
3217;SDS011;1621;49.702;8.618;2022-08-18T12:46:17;45.80;;;33.40;;
3217;SDS011;1621;49.702;8.618;2022-08-18T12:48:43;37.47;;;33.37;;
3217;SDS011;1621;49.702;8.618;2022-08-18T12:51:09;35.93;;;32.20;;
3217;SDS011;1621;49.702;8.618;2022-08-18T12:53:38;39.90;;;34.87;;
3217;SDS011;1621;49.702;8.618;2022-08-18T12:56:04;38.10;;;34.20;;
3217;SDS011;1621;49.702;8.618;2022-08-18T12:58:31;37.83;;;33.73;;
3217;SDS011;1621;49.702;8.618;2022-08-18T13:00:57;38.70;;;34.70;;
3217;SDS011;1621;49.702;8.618;2022-08-18T13:03:24;37.57;;;33.53;;
3217;SDS011;1621;49.702;8.618;2022-08-18T13:05:50;31.57;;;28.20;;
3217;SDS011;1621;49.702;8.618;2022-08-18T13:08:18;34.90;;;29.80;;
3217;SDS011;1621;49.702;8.618;2022-08-18T13:10:46;32.17;;;28.83;;
3217;SDS011;1621;49.702;8.618;2022-08-18T13:13:14;29.17;;;26.17;;
3217;SDS011;1621;49.702;8.618;2022-08-18T13:15:40;30.40;;;27.20;;
3217;SDS011;1621;49.702;8.618;2022-08-18T13:18:07;32.30;;;25.57;;
3217;SDS011;1621;49.702;8.618;2022-08-18T13:20:33;26.63;;;23.50;;
3217;SDS011;1621;49.702;8.618;2022-08-18T13:23:00;22.90;;;20.70;;
3217;SDS011;1621;49.702;8.618;2022-08-18T13:25:26;23.83;;;20.23;;
3217;SDS011;1621;49.702;8.618;2022-08-18T13:27:54;19.93;;;17.83;;
3217;SDS011;1621;49.702;8.618;2022-08-18T13:30:21;21.30;;;19.20;;
3217;SDS011;1621;49.702;8.618;2022-08-18T13:32:48;17.83;;;16.10;;
3217;SDS011;1621;49.702;8.618;2022-08-18T13:35:15;19.70;;;17.60;;
3217;SDS011;1621;49.702;8.618;2022-08-18T13:37:41;18.50;;;16.80;;
3217;SDS011;1621;49.702;8.618;2022-08-18T13:40:08;19.57;;;15.93;;
3217;SDS011;1621;49.702;8.618;2022-08-18T13:42:42;17.17;;;15.50;;
3217;SDS011;1621;49.702;8.618;2022-08-18T13:45:13;16.20;;;14.67;;
3217;SDS011;1621;49.702;8.618;2022-08-18T13:47:39;16.83;;;15.03;;
3217;SDS011;1621;49.702;8.618;2022-08-18T13:50:06;15.60;;;13.93;;
3217;SDS011;1621;49.702;8.618;2022-08-18T13:52:34;15.50;;;13.70;;
3217;SDS011;1621;49.702;8.618;2022-08-18T13:55:01;15.23;;;13.73;;
3217;SDS011;1621;49.702;8.618;2022-08-18T13:57:28;15.27;;;13.77;;
3217;SDS011;1621;49.702;8.618;2022-08-18T13:59:55;15.70;;;14.10;;
3217;SDS011;1621;49.702;8.618;2022-08-18T14:02:23;15.93;;;14.43;;
3217;SDS011;1621;49.702;8.618;2022-08-18T14:04:49;17.20;;;13.90;;
3217;SDS011;1621;49.702;8.618;2022-08-18T14:07:19;14.67;;;13.17;;
3217;SDS011;1621;49.702;8.618;2022-08-18T14:09:45;15.37;;;13.83;;
3217;SDS011;1621;49.702;8.618;2022-08-18T14:12:13;14.80;;;13.27;;
3217;SDS011;1621;49.702;8.618;2022-08-18T14:14:41;16.00;;;12.40;;
3217;SDS011;1621;49.702;8.618;2022-08-18T14:17:08;13.80;;;12.40;;
3217;SDS011;1621;49.702;8.618;2022-08-18T14:19:35;15.50;;;13.90;;
3217;SDS011;1621;49.702;8.618;2022-08-18T14:22:19;13.90;;;12.00;;
3217;SDS011;1621;49.702;8.618;2022-08-18T14:25:03;13.03;;;11.73;;
3217;SDS011;1621;49.702;8.618;2022-08-18T14:27:47;14.30;;;12.03;;
3217;SDS011;1621;49.702;8.618;2022-08-18T14:30:13;12.70;;;11.47;;
3217;SDS011;1621;49.702;8.618;2022-08-18T14:32:43;11.97;;;10.70;;
3217;SDS011;1621;49.702;8.618;2022-08-18T14:35:12;12.73;;;11.43;;
3217;SDS011;1621;49.702;8.618;2022-08-18T14:37:39;12.90;;;11.50;;
3217;SDS011;1621;49.702;8.618;2022-08-18T14:40:06;12.97;;;10.60;;
3217;SDS011;1621;49.702;8.618;2022-08-18T14:42:33;12.47;;;10.57;;
3217;SDS011;1621;49.702;8.618;2022-08-18T14:45:00;13.83;;;12.03;;
3217;SDS011;1621;49.702;8.618;2022-08-18T14:47:26;11.83;;;10.63;;
3217;SDS011;1621;49.702;8.618;2022-08-18T14:49:52;11.33;;;10.13;;
3217;SDS011;1621;49.702;8.618;2022-08-18T14:52:22;12.17;;;10.80;;
3217;SDS011;1621;49.702;8.618;2022-08-18T14:54:48;11.40;;;10.10;;
3217;SDS011;1621;49.702;8.618;2022-08-18T14:57:15;12.57;;;10.60;;
3217;SDS011;1621;49.702;8.618;2022-08-18T14:59:41;11.37;;;9.77;;
3217;SDS011;1621;49.702;8.618;2022-08-18T15:02:08;12.20;;;10.00;;
3217;SDS011;1621;49.702;8.618;2022-08-18T15:04:35;10.60;;;9.30;;
3217;SDS011;1621;49.702;8.618;2022-08-18T15:07:02;9.53;;;8.40;;
3217;SDS011;1621;49.702;8.618;2022-08-18T15:09:30;9.50;;;8.50;;
3217;SDS011;1621;49.702;8.618;2022-08-18T15:11:56;10.37;;;9.37;;
3217;SDS011;1621;49.702;8.618;2022-08-18T15:14:23;9.53;;;8.53;;
3217;SDS011;1621;49.702;8.618;2022-08-18T15:16:50;9.93;;;9.00;;
3217;SDS011;1621;49.702;8.618;2022-08-18T15:19:16;9.17;;;8.17;;
3217;SDS011;1621;49.702;8.618;2022-08-18T15:21:43;11.77;;;8.27;;
3217;SDS011;1621;49.702;8.618;2022-08-18T15:24:27;9.70;;;8.27;;
3217;SDS011;1621;49.702;8.618;2022-08-18T15:27:12;9.27;;;7.90;;
3217;SDS011;1621;49.702;8.618;2022-08-18T15:29:40;11.00;;;9.00;;
3217;SDS011;1621;49.702;8.618;2022-08-18T15:32:06;13.57;;;8.93;;
3217;SDS011;1621;49.702;8.618;2022-08-18T15:34:33;10.57;;;8.40;;
3217;SDS011;1621;49.702;8.618;2022-08-18T15:37:00;9.20;;;8.27;;